BAW9 BIKF-EGLL
Flight info
| Callsign | BAW9 |
|---|---|
| Flight time | 1h 30m |
| Altitude | 60000 |
| Route | DCT HL DCT RATSU DCT ORSUM DCT GOW DCT NUGRA DCT BNN |
| Aircraft | CONC/H-SDE2E3FGHIRYW/X |
Departure
| Time | 2026-05-07 15:20 |
|---|---|
| Airport | Keflavik International Airport (BIKF) |
Arrival
| Time | 2026-05-07 16:51 |
|---|---|
| Airport | London Heathrow Airport (EGLL) |
| Time | Latitude | Longitude | Altitude | Speed | Heading |
|---|---|---|---|---|---|
| 2026-05-07 14:40 | 63.99281 | -22.62452 | 149 ft | 0 kts | 0° |
| 2026-05-07 15:08 | 63.99272 | -22.62452 | 152 ft | 4 kts | 0° |
| 2026-05-07 15:08 | 63.99245 | -22.62452 | 147 ft | 4 kts | 0° |
| 2026-05-07 15:08 | 63.99225 | -22.62452 | 149 ft | 4 kts | 1° |
| 2026-05-07 15:08 | 63.99199 | -22.62458 | 149 ft | 4 kts | 19° |
| 2026-05-07 15:09 | 63.99180 | -22.62488 | 149 ft | 4 kts | 66° |
| 2026-05-07 15:09 | 63.99173 | -22.62539 | 149 ft | 4 kts | 91° |
| 2026-05-07 15:09 | 63.99173 | -22.62561 | 149 ft | 0 kts | 90° |
| 2026-05-07 15:13 | 63.99173 | -22.62536 | 149 ft | 4 kts | 90° |
| 2026-05-07 15:13 | 63.99173 | -22.62449 | 151 ft | 8 kts | 90° |
| 2026-05-07 15:13 | 63.99174 | -22.62242 | 149 ft | 18 kts | 90° |
| 2026-05-07 15:14 | 63.99174 | -22.61978 | 149 ft | 15 kts | 90° |
| 2026-05-07 15:14 | 63.99174 | -22.61783 | 152 ft | 10 kts | 89° |
| 2026-05-07 15:14 | 63.99174 | -22.61639 | 155 ft | 10 kts | 90° |
| 2026-05-07 15:14 | 63.99173 | -22.61465 | 159 ft | 12 kts | 90° |
| 2026-05-07 15:15 | 63.99173 | -22.61247 | 164 ft | 16 kts | 90° |
| 2026-05-07 15:15 | 63.99145 | -22.60977 | 171 ft | 18 kts | 145° |
| 2026-05-07 15:15 | 63.99006 | -22.60938 | 177 ft | 23 kts | 180° |
| 2026-05-07 15:15 | 63.98818 | -22.60938 | 173 ft | 31 kts | 179° |
| 2026-05-07 15:16 | 63.98585 | -22.60941 | 175 ft | 34 kts | 179° |
| 2026-05-07 15:16 | 63.98347 | -22.60940 | 172 ft | 35 kts | 180° |
| 2026-05-07 15:16 | 63.98117 | -22.60940 | 173 ft | 31 kts | 180° |
| 2026-05-07 15:16 | 63.97923 | -22.60940 | 176 ft | 25 kts | 180° |
| 2026-05-07 15:17 | 63.97760 | -22.60943 | 176 ft | 22 kts | 180° |
| 2026-05-07 15:17 | 63.97599 | -22.60941 | 174 ft | 25 kts | 180° |
| 2026-05-07 15:17 | 63.97410 | -22.60938 | 171 ft | 29 kts | 179° |
| 2026-05-07 15:17 | 63.97188 | -22.60938 | 164 ft | 35 kts | 180° |
| 2026-05-07 15:18 | 63.96928 | -22.60942 | 154 ft | 38 kts | 179° |
| 2026-05-07 15:18 | 63.96671 | -22.60940 | 145 ft | 37 kts | 179° |
| 2026-05-07 15:18 | 63.96492 | -22.60926 | 142 ft | 17 kts | 160° |
| 2026-05-07 15:18 | 63.96462 | -22.60757 | 146 ft | 8 kts | 96° |
| 2026-05-07 15:19 | 63.96460 | -22.60655 | 149 ft | 6 kts | 91° |
| 2026-05-07 15:19 | 63.96477 | -22.60565 | 151 ft | 5 kts | 35° |
| 2026-05-07 15:19 | 63.96522 | -22.60545 | 153 ft | 9 kts | 1° |
| 2026-05-07 15:19 | 63.96529 | -22.60545 | 153 ft | 0 kts | 1° |
| 2026-05-07 15:20 | 63.96838 | -22.60542 | 163 ft | 97 kts | 0° |
| 2026-05-07 15:20 | 63.97889 | -22.60539 | 180 ft | 203 kts | 360° |
| 2026-05-07 15:20 | 63.99443 | -22.60594 | 1342 ft | 215 kts | 1° |
| 2026-05-07 15:20 | 64.00989 | -22.60624 | 2516 ft | 240 kts | 4° |
| 2026-05-07 15:21 | 64.02782 | -22.60256 | 4230 ft | 279 kts | 12° |
| 2026-05-07 15:21 | 64.04773 | -22.59042 | 6261 ft | 311 kts | 16° |
| 2026-05-07 15:21 | 64.06738 | -22.58178 | 7996 ft | 260 kts | 17° |
| 2026-05-07 15:21 | 64.08227 | -22.56016 | 8503 ft | 264 kts | 49° |
| 2026-05-07 15:22 | 64.09136 | -22.52357 | 8650 ft | 271 kts | 78° |
| 2026-05-07 15:22 | 64.08982 | -22.48115 | 8825 ft | 278 kts | 110° |
| 2026-05-07 15:22 | 64.08248 | -22.44038 | 9294 ft | 271 kts | 103° |
| 2026-05-07 15:22 | 64.08066 | -22.39860 | 10271 ft | 276 kts | 85° |
| 2026-05-07 15:23 | 64.07859 | -22.35297 | 10095 ft | 294 kts | 110° |
| 2026-05-07 15:23 | 64.06526 | -22.31812 | 9969 ft | 299 kts | 144° |
| 2026-05-07 15:23 | 64.04735 | -22.28925 | 10012 ft | 347 kts | 136° |
| 2026-05-07 15:23 | 64.03021 | -22.24235 | 9963 ft | 427 kts | 114° |
| 2026-05-07 15:24 | 64.01759 | -22.17418 | 10102 ft | 503 kts | 109° |
| 2026-05-07 15:24 | 64.00454 | -22.09668 | 10796 ft | 556 kts | 109° |
| 2026-05-07 15:24 | 63.99081 | -22.01018 | 11346 ft | 606 kts | 107° |
| 2026-05-07 15:24 | 63.97689 | -21.91676 | 12155 ft | 636 kts | 110° |
| 2026-05-07 15:25 | 63.95730 | -21.82872 | 15260 ft | 599 kts | 123° |
| 2026-05-07 15:25 | 63.93215 | -21.75857 | 20161 ft | 551 kts | 131° |
| 2026-05-07 15:25 | 63.90753 | -21.69558 | 24748 ft | 516 kts | 129° |
| 2026-05-07 15:25 | 63.88588 | -21.63395 | 28765 ft | 483 kts | 124° |
| 2026-05-07 15:26 | 63.86694 | -21.57472 | 32225 ft | 444 kts | 122° |
| 2026-05-07 15:26 | 63.85052 | -21.52013 | 34832 ft | 407 kts | 120° |
| 2026-05-07 15:26 | 63.83639 | -21.46632 | 36461 ft | 399 kts | 115° |
| 2026-05-07 15:26 | 63.82324 | -21.40777 | 36220 ft | 435 kts | 112° |
| 2026-05-07 15:27 | 63.81014 | -21.34298 | 36075 ft | 470 kts | 116° |
| 2026-05-07 15:27 | 63.79209 | -21.27818 | 36009 ft | 505 kts | 126° |
| 2026-05-07 15:27 | 63.76968 | -21.21357 | 35987 ft | 538 kts | 128° |
| 2026-05-07 15:27 | 63.74487 | -21.14604 | 35973 ft | 569 kts | 129° |
| 2026-05-07 15:28 | 63.71925 | -21.07785 | 35956 ft | 591 kts | 129° |
| 2026-05-07 15:28 | 63.69221 | -21.00654 | 35944 ft | 606 kts | 129° |
| 2026-05-07 15:28 | 63.66444 | -20.93337 | 35944 ft | 624 kts | 129° |
| 2026-05-07 15:28 | 63.63579 | -20.85774 | 35925 ft | 645 kts | 129° |
| 2026-05-07 15:29 | 63.60637 | -20.77984 | 35926 ft | 663 kts | 129° |
| 2026-05-07 15:29 | 63.57625 | -20.69972 | 35938 ft | 680 kts | 129° |
| 2026-05-07 15:29 | 63.54548 | -20.61746 | 35896 ft | 697 kts | 129° |
| 2026-05-07 15:29 | 63.51412 | -20.53304 | 35829 ft | 714 kts | 128° |
| 2026-05-07 15:30 | 63.48212 | -20.44603 | 35635 ft | 733 kts | 128° |
| 2026-05-07 15:30 | 63.45030 | -20.35807 | 35992 ft | 741 kts | 127° |
| 2026-05-07 15:30 | 63.41937 | -20.26535 | 36303 ft | 750 kts | 120° |
| 2026-05-07 15:30 | 63.39624 | -20.16069 | 36564 ft | 755 kts | 108° |
| 2026-05-07 15:31 | 63.38000 | -20.04893 | 36927 ft | 762 kts | 106° |
| 2026-05-07 15:31 | 63.36281 | -19.93637 | 37055 ft | 766 kts | 110° |
| 2026-05-07 15:31 | 63.34254 | -19.82849 | 37286 ft | 745 kts | 114° |
| 2026-05-07 15:31 | 63.32130 | -19.72385 | 38246 ft | 740 kts | 113° |
| 2026-05-07 15:32 | 63.30059 | -19.61939 | 39233 ft | 737 kts | 112° |
| 2026-05-07 15:32 | 63.28069 | -19.51458 | 39975 ft | 735 kts | 111° |
| 2026-05-07 15:32 | 63.26159 | -19.41112 | 40692 ft | 733 kts | 112° |
| 2026-05-07 15:32 | 63.24160 | -19.30704 | 41450 ft | 731 kts | 112° |
| 2026-05-07 15:33 | 63.22135 | -19.20381 | 42261 ft | 728 kts | 113° |
| 2026-05-07 15:33 | 63.20141 | -19.10088 | 43089 ft | 725 kts | 112° |
| 2026-05-07 15:33 | 63.18179 | -18.99829 | 43937 ft | 721 kts | 112° |
| 2026-05-07 15:33 | 63.16182 | -18.89696 | 44818 ft | 717 kts | 113° |
| 2026-05-07 15:34 | 63.14184 | -18.79617 | 45516 ft | 715 kts | 112° |
| 2026-05-07 15:34 | 63.12220 | -18.69508 | 45909 ft | 717 kts | 112° |
| 2026-05-07 15:34 | 63.10234 | -18.59531 | 46086 ft | 722 kts | 113° |
| 2026-05-07 15:34 | 63.08183 | -18.49373 | 46131 ft | 728 kts | 112° |
| 2026-05-07 15:35 | 63.04077 | -18.28770 | 46175 ft | 740 kts | 113° |
| 2026-05-07 15:35 | 62.99829 | -18.07923 | 46225 ft | 752 kts | 113° |
| 2026-05-07 15:36 | 62.95531 | -17.86949 | 46245 ft | 763 kts | 114° |
| 2026-05-07 15:36 | 62.91123 | -17.65594 | 46287 ft | 773 kts | 114° |
| 2026-05-07 15:37 | 62.86584 | -17.44040 | 46321 ft | 784 kts | 114° |
| 2026-05-07 15:37 | 62.82003 | -17.22242 | 46378 ft | 793 kts | 115° |
| 2026-05-07 15:38 | 62.77287 | -17.00305 | 46396 ft | 802 kts | 114° |
| 2026-05-07 15:38 | 62.72544 | -16.78231 | 45958 ft | 817 kts | 115° |
| 2026-05-07 15:39 | 62.70081 | -16.67003 | 45549 ft | 827 kts | 115° |
| 2026-05-07 15:39 | 62.67590 | -16.55620 | 45138 ft | 837 kts | 115° |
| 2026-05-07 15:39 | 62.65072 | -16.44101 | 44716 ft | 850 kts | 115° |
| 2026-05-07 15:39 | 62.62483 | -16.32443 | 44284 ft | 863 kts | 116° |
| 2026-05-07 15:40 | 62.59837 | -16.20619 | 43871 ft | 879 kts | 116° |
| 2026-05-07 15:40 | 62.57155 | -16.08567 | 43451 ft | 896 kts | 116° |
| 2026-05-07 15:40 | 62.54428 | -15.96448 | 43102 ft | 916 kts | 116° |
| 2026-05-07 15:40 | 62.51590 | -15.83975 | 43285 ft | 931 kts | 116° |
| 2026-05-07 15:41 | 62.48703 | -15.71286 | 43540 ft | 948 kts | 116° |
| 2026-05-07 15:41 | 62.45761 | -15.58405 | 43833 ft | 962 kts | 116° |
| 2026-05-07 15:41 | 62.42766 | -15.45441 | 44309 ft | 968 kts | 116° |
| 2026-05-07 15:41 | 62.39745 | -15.32418 | 44838 ft | 974 kts | 116° |
| 2026-05-07 15:42 | 62.36703 | -15.19309 | 45420 ft | 982 kts | 117° |
| 2026-05-07 15:42 | 62.33612 | -15.06149 | 45984 ft | 991 kts | 117° |
| 2026-05-07 15:42 | 62.30468 | -14.92880 | 46564 ft | 998 kts | 117° |
| 2026-05-07 15:42 | 62.27355 | -14.79747 | 47182 ft | 1005 kts | 117° |
| 2026-05-07 15:43 | 62.24157 | -14.66336 | 47853 ft | 1015 kts | 117° |
| 2026-05-07 15:43 | 62.20902 | -14.52828 | 48740 ft | 1021 kts | 117° |
| 2026-05-07 15:43 | 62.17636 | -14.39330 | 50341 ft | 1021 kts | 117° |
| 2026-05-07 15:43 | 62.14372 | -14.25869 | 51978 ft | 1018 kts | 117° |
| 2026-05-07 15:44 | 62.11092 | -14.12482 | 53497 ft | 1018 kts | 118° |
| 2026-05-07 15:44 | 62.07776 | -13.99050 | 53792 ft | 1027 kts | 118° |
| 2026-05-07 15:44 | 62.04420 | -13.85515 | 53799 ft | 1038 kts | 118° |
| 2026-05-07 15:44 | 62.01064 | -13.72031 | 53813 ft | 1049 kts | 118° |
| 2026-05-07 15:45 | 61.94114 | -13.44462 | 54531 ft | 1062 kts | 118° |
| 2026-05-07 15:45 | 61.90614 | -13.30649 | 55277 ft | 1065 kts | 118° |
| 2026-05-07 15:45 | 61.87077 | -13.16795 | 55327 ft | 1073 kts | 118° |
| 2026-05-07 15:46 | 61.79868 | -12.88903 | 55729 ft | 1085 kts | 119° |
| 2026-05-07 15:46 | 61.76225 | -12.74932 | 56239 ft | 1088 kts | 119° |
| 2026-05-07 15:46 | 61.72607 | -12.61113 | 56445 ft | 1093 kts | 119° |
| 2026-05-07 15:47 | 61.68904 | -12.47071 | 56504 ft | 1099 kts | 120° |
| 2026-05-07 15:47 | 61.65170 | -12.33018 | 56854 ft | 1101 kts | 120° |
| 2026-05-07 15:47 | 61.61415 | -12.18964 | 57315 ft | 1103 kts | 120° |
| 2026-05-07 15:47 | 61.57642 | -12.04906 | 57487 ft | 1107 kts | 120° |
| 2026-05-07 15:48 | 61.53839 | -11.90837 | 57486 ft | 1112 kts | 120° |
| 2026-05-07 15:48 | 61.49996 | -11.76732 | 57695 ft | 1114 kts | 120° |
| 2026-05-07 15:48 | 61.46143 | -11.62676 | 58268 ft | 1114 kts | 120° |
| 2026-05-07 15:49 | 61.38377 | -11.34562 | 58364 ft | 1122 kts | 121° |
| 2026-05-07 15:49 | 61.30542 | -11.06584 | 58652 ft | 1127 kts | 121° |
| 2026-05-07 15:49 | 61.26566 | -10.92508 | 58829 ft | 1130 kts | 121° |
| 2026-05-07 15:50 | 61.22567 | -10.78439 | 58884 ft | 1132 kts | 121° |
| 2026-05-07 15:50 | 61.18550 | -10.64390 | 59108 ft | 1134 kts | 121° |
| 2026-05-07 15:50 | 61.14507 | -10.50335 | 59237 ft | 1136 kts | 122° |
| 2026-05-07 15:51 | 61.06352 | -10.22272 | 59336 ft | 1141 kts | 122° |
| 2026-05-07 15:51 | 60.96666 | -9.96669 | 59065 ft | 1144 kts | 137° |
| 2026-05-07 15:52 | 60.83973 | -9.77085 | 59002 ft | 1145 kts | 150° |
| 2026-05-07 15:52 | 60.77095 | -9.68856 | 59216 ft | 1146 kts | 149° |
| 2026-05-07 15:52 | 60.70299 | -9.60295 | 59324 ft | 1148 kts | 148° |
| 2026-05-07 15:53 | 60.56951 | -9.42284 | 59330 ft | 1154 kts | 147° |
| 2026-05-07 15:53 | 60.43583 | -9.24536 | 59341 ft | 1158 kts | 148° |
| 2026-05-07 15:54 | 60.30015 | -9.06847 | 59355 ft | 1163 kts | 148° |
| 2026-05-07 15:54 | 60.16365 | -8.89256 | 59353 ft | 1167 kts | 148° |
| 2026-05-07 15:55 | 60.02648 | -8.71751 | 59381 ft | 1171 kts | 148° |
| 2026-05-07 15:55 | 59.95803 | -8.63081 | 59362 ft | 1157 kts | 149° |
| 2026-05-07 15:55 | 59.89135 | -8.54670 | 59315 ft | 1145 kts | 149° |
| 2026-05-07 15:56 | 59.75708 | -8.37856 | 59404 ft | 1138 kts | 149° |
| 2026-05-07 15:56 | 59.62327 | -8.21267 | 59375 ft | 1133 kts | 149° |
| 2026-05-07 15:57 | 59.48971 | -8.04861 | 59424 ft | 1128 kts | 149° |
| 2026-05-07 15:57 | 59.35652 | -7.88657 | 59379 ft | 1124 kts | 150° |
| 2026-05-07 15:58 | 59.22452 | -7.72743 | 59440 ft | 1120 kts | 150° |
| 2026-05-07 15:58 | 59.09186 | -7.56899 | 59420 ft | 1117 kts | 150° |
| 2026-05-07 15:59 | 58.95938 | -7.41217 | 59451 ft | 1113 kts | 150° |
| 2026-05-07 15:59 | 58.82728 | -7.25682 | 59475 ft | 1110 kts | 150° |
| 2026-05-07 16:00 | 58.69605 | -7.10414 | 59468 ft | 1107 kts | 150° |
| 2026-05-07 16:00 | 58.56421 | -6.95202 | 59506 ft | 1105 kts | 150° |
| 2026-05-07 16:01 | 58.43243 | -6.80131 | 59503 ft | 1102 kts | 150° |
| 2026-05-07 16:01 | 58.30078 | -6.65212 | 59500 ft | 1100 kts | 151° |
| 2026-05-07 16:02 | 58.17015 | -6.50532 | 59529 ft | 1098 kts | 151° |
| 2026-05-07 16:02 | 58.03866 | -6.35883 | 59507 ft | 1096 kts | 151° |
| 2026-05-07 16:03 | 57.90724 | -6.21367 | 59542 ft | 1094 kts | 151° |
| 2026-05-07 16:03 | 57.77577 | -6.06975 | 59516 ft | 1093 kts | 151° |
| 2026-05-07 16:04 | 57.64530 | -5.92790 | 59578 ft | 1092 kts | 151° |
| 2026-05-07 16:04 | 57.51394 | -5.78588 | 59539 ft | 1091 kts | 152° |
| 2026-05-07 16:05 | 57.38234 | -5.64530 | 59596 ft | 1091 kts | 152° |
| 2026-05-07 16:05 | 57.25036 | -5.50571 | 59589 ft | 1098 kts | 152° |
| 2026-05-07 16:06 | 57.11774 | -5.36669 | 59380 ft | 1111 kts | 152° |
| 2026-05-07 16:06 | 57.05001 | -5.29663 | 58830 ft | 1121 kts | 154° |
| 2026-05-07 16:06 | 56.97958 | -5.23427 | 58113 ft | 1130 kts | 160° |
| 2026-05-07 16:06 | 56.90604 | -5.18235 | 57443 ft | 1136 kts | 161° |
| 2026-05-07 16:07 | 56.83169 | -5.13238 | 56845 ft | 1138 kts | 160° |
| 2026-05-07 16:07 | 56.75788 | -5.08034 | 56272 ft | 1139 kts | 160° |
| 2026-05-07 16:07 | 56.68404 | -5.02735 | 55693 ft | 1142 kts | 160° |
| 2026-05-07 16:07 | 56.61006 | -4.97397 | 55135 ft | 1145 kts | 160° |
| 2026-05-07 16:08 | 56.53715 | -4.92086 | 54592 ft | 1145 kts | 159° |
| 2026-05-07 16:08 | 56.46321 | -4.86733 | 54452 ft | 1141 kts | 159° |
| 2026-05-07 16:08 | 56.38969 | -4.81452 | 54588 ft | 1139 kts | 159° |
| 2026-05-07 16:09 | 56.24167 | -4.70906 | 54669 ft | 1145 kts | 159° |
| 2026-05-07 16:09 | 56.09357 | -4.60429 | 54669 ft | 1143 kts | 159° |
| 2026-05-07 16:10 | 55.94574 | -4.49930 | 54680 ft | 1143 kts | 159° |
| 2026-05-07 16:10 | 55.79955 | -4.39257 | 54681 ft | 1144 kts | 156° |
| 2026-05-07 16:11 | 55.65549 | -4.27259 | 54670 ft | 1143 kts | 156° |
| 2026-05-07 16:11 | 55.51090 | -4.15533 | 54710 ft | 1144 kts | 156° |
| 2026-05-07 16:12 | 55.36562 | -4.03974 | 54700 ft | 1145 kts | 157° |
| 2026-05-07 16:12 | 55.22018 | -3.92517 | 54727 ft | 1148 kts | 157° |
| 2026-05-07 16:13 | 55.07522 | -3.81193 | 54715 ft | 1149 kts | 157° |
| 2026-05-07 16:13 | 54.92902 | -3.69866 | 54713 ft | 1152 kts | 157° |
| 2026-05-07 16:14 | 54.78236 | -3.58593 | 54739 ft | 1153 kts | 157° |
| 2026-05-07 16:14 | 54.70920 | -3.53002 | 54704 ft | 1139 kts | 157° |
| 2026-05-07 16:14 | 54.63756 | -3.47543 | 54077 ft | 1113 kts | 157° |
| 2026-05-07 16:14 | 54.56822 | -3.42277 | 52614 ft | 1094 kts | 157° |
| 2026-05-07 16:15 | 54.49913 | -3.37051 | 51009 ft | 1076 kts | 157° |
| 2026-05-07 16:15 | 54.43120 | -3.31932 | 49372 ft | 1056 kts | 157° |
| 2026-05-07 16:15 | 54.36451 | -3.26925 | 47756 ft | 1036 kts | 157° |
| 2026-05-07 16:15 | 54.29915 | -3.22036 | 46144 ft | 1014 kts | 157° |
| 2026-05-07 16:16 | 54.23518 | -3.17266 | 44528 ft | 992 kts | 157° |
| 2026-05-07 16:16 | 54.17271 | -3.12626 | 43389 ft | 964 kts | 157° |
| 2026-05-07 16:16 | 54.11245 | -3.08163 | 43012 ft | 926 kts | 158° |
| 2026-05-07 16:16 | 54.05440 | -3.03876 | 41764 ft | 895 kts | 158° |
| 2026-05-07 16:17 | 53.99820 | -2.99740 | 40691 ft | 862 kts | 158° |
| 2026-05-07 16:17 | 53.94435 | -2.95789 | 39770 ft | 826 kts | 157° |
| 2026-05-07 16:17 | 53.89354 | -2.91964 | 38645 ft | 793 kts | 155° |
| 2026-05-07 16:17 | 53.84562 | -2.87770 | 37406 ft | 758 kts | 149° |
| 2026-05-07 16:18 | 53.80319 | -2.82863 | 36398 ft | 721 kts | 140° |
| 2026-05-07 16:18 | 53.76673 | -2.77343 | 35382 ft | 685 kts | 141° |
| 2026-05-07 16:18 | 53.72853 | -2.72923 | 34844 ft | 652 kts | 155° |
| 2026-05-07 16:18 | 53.68643 | -2.70439 | 34673 ft | 635 kts | 163° |
| 2026-05-07 16:19 | 53.64457 | -2.68197 | 34782 ft | 616 kts | 162° |
| 2026-05-07 16:19 | 53.60557 | -2.65973 | 34853 ft | 570 kts | 161° |
| 2026-05-07 16:19 | 53.56989 | -2.63897 | 34903 ft | 537 kts | 161° |
| 2026-05-07 16:20 | 53.49938 | -2.59748 | 34978 ft | 539 kts | 161° |
| 2026-05-07 16:20 | 53.42856 | -2.55539 | 34991 ft | 540 kts | 160° |
| 2026-05-07 16:20 | 53.39300 | -2.53409 | 35000 ft | 551 kts | 160° |
| 2026-05-07 16:21 | 53.35591 | -2.51172 | 35024 ft | 585 kts | 160° |
| 2026-05-07 16:21 | 53.31651 | -2.48777 | 35026 ft | 620 kts | 160° |
| 2026-05-07 16:21 | 53.27485 | -2.46222 | 35026 ft | 656 kts | 160° |
| 2026-05-07 16:22 | 53.18943 | -2.40903 | 35001 ft | 662 kts | 159° |
| 2026-05-07 16:22 | 53.10321 | -2.35404 | 34991 ft | 662 kts | 159° |
| 2026-05-07 16:23 | 53.01840 | -2.29338 | 34932 ft | 665 kts | 148° |
| 2026-05-07 16:23 | 52.98213 | -2.24918 | 34127 ft | 632 kts | 137° |
| 2026-05-07 16:23 | 52.95172 | -2.19859 | 32494 ft | 607 kts | 135° |
| 2026-05-07 16:23 | 52.92273 | -2.15119 | 31292 ft | 578 kts | 139° |
| 2026-05-07 16:24 | 52.89266 | -2.10935 | 29803 ft | 552 kts | 143° |
| 2026-05-07 16:24 | 52.86274 | -2.07081 | 28124 ft | 539 kts | 142° |
| 2026-05-07 16:24 | 52.83381 | -2.03226 | 26541 ft | 529 kts | 142° |
| 2026-05-07 16:24 | 52.80587 | -1.99360 | 25030 ft | 521 kts | 140° |
| 2026-05-07 16:25 | 52.77852 | -1.95503 | 23591 ft | 513 kts | 141° |
| 2026-05-07 16:25 | 52.75125 | -1.91750 | 21947 ft | 507 kts | 142° |
| 2026-05-07 16:25 | 52.72414 | -1.88066 | 20398 ft | 502 kts | 142° |
| 2026-05-07 16:25 | 52.69735 | -1.84419 | 18918 ft | 497 kts | 141° |
| 2026-05-07 16:26 | 52.67107 | -1.80764 | 17364 ft | 492 kts | 141° |
| 2026-05-07 16:26 | 52.64489 | -1.77187 | 15806 ft | 486 kts | 142° |
| 2026-05-07 16:26 | 52.61940 | -1.73742 | 14913 ft | 470 kts | 142° |
| 2026-05-07 16:26 | 52.60270 | -1.71454 | 14237 ft | 458 kts | 141° |
| 2026-05-07 16:27 | 52.57043 | -1.67025 | 12319 ft | 454 kts | 142° |
| 2026-05-07 16:27 | 52.54643 | -1.63786 | 11198 ft | 442 kts | 142° |
| 2026-05-07 16:27 | 52.52274 | -1.60562 | 10072 ft | 446 kts | 142° |
| 2026-05-07 16:27 | 52.49961 | -1.57405 | 10001 ft | 416 kts | 142° |
| 2026-05-07 16:28 | 52.47808 | -1.54502 | 9998 ft | 386 kts | 142° |
| 2026-05-07 16:28 | 52.45808 | -1.51785 | 9999 ft | 361 kts | 142° |
| 2026-05-07 16:28 | 52.43955 | -1.49265 | 9998 ft | 340 kts | 143° |
| 2026-05-07 16:28 | 52.42175 | -1.46882 | 9996 ft | 321 kts | 142° |
| 2026-05-07 16:29 | 52.40500 | -1.44609 | 9999 ft | 305 kts | 142° |
| 2026-05-07 16:29 | 52.38910 | -1.42452 | 10037 ft | 289 kts | 142° |
| 2026-05-07 16:29 | 52.37374 | -1.40402 | 10049 ft | 285 kts | 142° |
| 2026-05-07 16:29 | 52.35832 | -1.38333 | 10059 ft | 286 kts | 142° |
| 2026-05-07 16:30 | 52.34304 | -1.36267 | 10060 ft | 285 kts | 142° |
| 2026-05-07 16:30 | 52.32778 | -1.34190 | 10076 ft | 285 kts | 142° |
| 2026-05-07 16:30 | 52.31267 | -1.32151 | 10079 ft | 285 kts | 142° |
| 2026-05-07 16:30 | 52.29728 | -1.30106 | 10057 ft | 285 kts | 143° |
| 2026-05-07 16:31 | 52.28186 | -1.28072 | 10057 ft | 285 kts | 143° |
| 2026-05-07 16:31 | 52.26643 | -1.26035 | 10054 ft | 285 kts | 142° |
| 2026-05-07 16:31 | 52.25115 | -1.23973 | 10059 ft | 285 kts | 142° |
| 2026-05-07 16:31 | 52.23585 | -1.21924 | 10058 ft | 285 kts | 142° |
| 2026-05-07 16:32 | 52.22048 | -1.19891 | 10045 ft | 284 kts | 142° |
| 2026-05-07 16:32 | 52.20516 | -1.17858 | 10053 ft | 284 kts | 142° |
| 2026-05-07 16:32 | 52.18988 | -1.15810 | 10056 ft | 284 kts | 142° |
| 2026-05-07 16:32 | 52.17456 | -1.13778 | 10056 ft | 284 kts | 143° |
| 2026-05-07 16:33 | 52.15943 | -1.11779 | 10051 ft | 284 kts | 142° |
| 2026-05-07 16:33 | 52.14911 | -1.10402 | 10049 ft | 284 kts | 142° |
| 2026-05-07 16:33 | 52.12868 | -1.07693 | 9345 ft | 294 kts | 143° |
| 2026-05-07 16:33 | 52.11284 | -1.05608 | 9052 ft | 288 kts | 142° |
| 2026-05-07 16:34 | 52.09761 | -1.03575 | 8863 ft | 281 kts | 142° |
| 2026-05-07 16:34 | 52.08237 | -1.01559 | 8430 ft | 283 kts | 142° |
| 2026-05-07 16:34 | 52.06714 | -0.99557 | 8083 ft | 281 kts | 143° |
| 2026-05-07 16:34 | 52.05215 | -0.97581 | 7990 ft | 271 kts | 142° |
| 2026-05-07 16:35 | 52.04267 | -0.96320 | 8003 ft | 261 kts | 142° |
| 2026-05-07 16:35 | 52.02840 | -0.94437 | 8028 ft | 282 kts | 142° |
| 2026-05-07 16:35 | 52.01301 | -0.92426 | 8031 ft | 281 kts | 142° |
| 2026-05-07 16:35 | 51.99783 | -0.90428 | 8030 ft | 282 kts | 142° |
| 2026-05-07 16:36 | 51.97764 | -0.87770 | 8014 ft | 281 kts | 142° |
| 2026-05-07 16:36 | 51.96246 | -0.85785 | 8018 ft | 281 kts | 142° |
| 2026-05-07 16:36 | 51.94726 | -0.83791 | 8025 ft | 281 kts | 142° |
| 2026-05-07 16:36 | 51.93701 | -0.82445 | 8017 ft | 281 kts | 142° |
| 2026-05-07 16:37 | 51.92184 | -0.80462 | 8028 ft | 280 kts | 142° |
| 2026-05-07 16:37 | 51.90667 | -0.78478 | 8030 ft | 280 kts | 142° |
| 2026-05-07 16:37 | 51.89171 | -0.76521 | 8023 ft | 280 kts | 142° |
| 2026-05-07 16:37 | 51.87656 | -0.74543 | 8037 ft | 280 kts | 142° |
| 2026-05-07 16:38 | 51.86140 | -0.72568 | 8037 ft | 280 kts | 142° |
| 2026-05-07 16:38 | 51.84625 | -0.70592 | 8038 ft | 280 kts | 142° |
| 2026-05-07 16:38 | 51.83109 | -0.68616 | 8031 ft | 280 kts | 142° |
| 2026-05-07 16:38 | 51.81501 | -0.66892 | 8019 ft | 277 kts | 158° |
| 2026-05-07 16:39 | 51.79724 | -0.65677 | 8030 ft | 278 kts | 158° |
| 2026-05-07 16:39 | 51.77973 | -0.64357 | 8028 ft | 276 kts | 154° |
| 2026-05-07 16:39 | 51.76298 | -0.63029 | 8018 ft | 262 kts | 155° |
| 2026-05-07 16:39 | 51.74722 | -0.61789 | 8020 ft | 249 kts | 155° |
| 2026-05-07 16:40 | 51.73174 | -0.60580 | 8041 ft | 248 kts | 155° |
| 2026-05-07 16:40 | 51.71614 | -0.59370 | 8031 ft | 248 kts | 155° |
| 2026-05-07 16:40 | 51.70050 | -0.58220 | 8031 ft | 247 kts | 166° |
| 2026-05-07 16:40 | 51.68357 | -0.57793 | 8054 ft | 247 kts | 177° |
| 2026-05-07 16:41 | 51.66644 | -0.57682 | 8047 ft | 246 kts | 180° |
| 2026-05-07 16:41 | 51.64934 | -0.57658 | 8040 ft | 245 kts | 180° |
| 2026-05-07 16:41 | 51.63234 | -0.57806 | 8025 ft | 245 kts | 199° |
| 2026-05-07 16:41 | 51.61820 | -0.59282 | 7851 ft | 251 kts | 233° |
| 2026-05-07 16:42 | 51.60895 | -0.61683 | 7470 ft | 254 kts | 242° |
| 2026-05-07 16:42 | 51.60105 | -0.64257 | 7061 ft | 259 kts | 245° |
| 2026-05-07 16:42 | 51.59378 | -0.66814 | 7003 ft | 248 kts | 245° |
| 2026-05-07 16:42 | 51.58685 | -0.69349 | 6721 ft | 250 kts | 246° |
| 2026-05-07 16:43 | 51.57989 | -0.71930 | 6353 ft | 252 kts | 246° |
| 2026-05-07 16:43 | 51.57288 | -0.74536 | 5954 ft | 256 kts | 246° |
| 2026-05-07 16:43 | 51.56574 | -0.77178 | 5544 ft | 259 kts | 246° |
| 2026-05-07 16:43 | 51.55847 | -0.79846 | 5204 ft | 261 kts | 246° |
| 2026-05-07 16:44 | 51.55120 | -0.82505 | 4950 ft | 256 kts | 246° |
| 2026-05-07 16:44 | 51.54422 | -0.85053 | 4914 ft | 242 kts | 246° |
| 2026-05-07 16:44 | 51.53751 | -0.87505 | 4926 ft | 240 kts | 246° |
| 2026-05-07 16:44 | 51.53077 | -0.89963 | 4949 ft | 240 kts | 246° |
| 2026-05-07 16:45 | 51.52405 | -0.92374 | 4948 ft | 230 kts | 240° |
| 2026-05-07 16:45 | 51.51317 | -0.94109 | 4795 ft | 221 kts | 197° |
| 2026-05-07 16:45 | 51.49872 | -0.94175 | 4773 ft | 205 kts | 151° |
| 2026-05-07 16:45 | 51.48853 | -0.92716 | 4955 ft | 197 kts | 123° |
| 2026-05-07 16:46 | 51.48114 | -0.90825 | 5015 ft | 202 kts | 118° |
| 2026-05-07 16:46 | 51.47557 | -0.88821 | 4996 ft | 200 kts | 92° |
| 2026-05-07 16:46 | 51.47554 | -0.86602 | 5024 ft | 201 kts | 86° |
| 2026-05-07 16:46 | 51.47615 | -0.84312 | 4625 ft | 209 kts | 87° |
| 2026-05-07 16:47 | 51.47661 | -0.81987 | 4262 ft | 207 kts | 88° |
| 2026-05-07 16:47 | 51.47682 | -0.79695 | 3936 ft | 204 kts | 89° |
| 2026-05-07 16:47 | 51.47686 | -0.77360 | 3652 ft | 211 kts | 90° |
| 2026-05-07 16:47 | 51.47682 | -0.75015 | 3371 ft | 209 kts | 90° |
| 2026-05-07 16:48 | 51.47673 | -0.72694 | 3078 ft | 208 kts | 91° |
| 2026-05-07 16:48 | 51.47668 | -0.70376 | 2793 ft | 207 kts | 91° |
| 2026-05-07 16:48 | 51.47670 | -0.68070 | 2517 ft | 206 kts | 90° |
| 2026-05-07 16:48 | 51.47675 | -0.65772 | 2227 ft | 206 kts | 91° |
| 2026-05-07 16:49 | 51.47685 | -0.63492 | 1947 ft | 202 kts | 90° |
| 2026-05-07 16:49 | 51.47693 | -0.61291 | 1687 ft | 199 kts | 90° |
| 2026-05-07 16:49 | 51.47702 | -0.59074 | 1440 ft | 199 kts | 90° |
| 2026-05-07 16:49 | 51.47712 | -0.56854 | 1171 ft | 199 kts | 91° |
| 2026-05-07 16:50 | 51.47725 | -0.54645 | 867 ft | 196 kts | 92° |
| 2026-05-07 16:50 | 51.47735 | -0.52505 | 628 ft | 189 kts | 91° |
| 2026-05-07 16:50 | 51.47744 | -0.50414 | 336 ft | 188 kts | 91° |
| 2026-05-07 16:50 | 51.47756 | -0.48348 | 136 ft | 187 kts | 91° |
| 2026-05-07 16:51 | 51.47759 | -0.46439 | 98 ft | 122 kts | 90° |
| 2026-05-07 16:51 | 51.47760 | -0.45562 | 94 ft | 38 kts | 90° |
| 2026-05-07 16:51 | 51.47753 | -0.45245 | 97 ft | 21 kts | 111° |
| 2026-05-07 16:51 | 51.47644 | -0.45177 | 96 ft | 17 kts | 177° |
| 2026-05-07 16:52 | 51.47615 | -0.45175 | 94 ft | 0 kts | 178° |
| 2026-05-07 16:52 | 51.47612 | -0.45175 | 94 ft | 3 kts | 178° |
| 2026-05-07 16:52 | 51.47556 | -0.45173 | 95 ft | 11 kts | 178° |
| 2026-05-07 16:53 | 51.47517 | -0.45106 | 95 ft | 8 kts | 106° |
| 2026-05-07 16:53 | 51.47510 | -0.44986 | 96 ft | 13 kts | 90° |
| 2026-05-07 16:53 | 51.47510 | -0.44800 | 96 ft | 20 kts | 89° |
| 2026-05-07 16:53 | 51.47504 | -0.44545 | 95 ft | 26 kts | 92° |
| 2026-05-07 16:54 | 51.47504 | -0.44228 | 95 ft | 24 kts | 89° |
| 2026-05-07 16:54 | 51.47450 | -0.44060 | 95 ft | 17 kts | 175° |
| 2026-05-07 16:54 | 51.47311 | -0.44059 | 94 ft | 23 kts | 179° |
| 2026-05-07 16:54 | 51.47134 | -0.44057 | 94 ft | 28 kts | 180° |
| 2026-05-07 16:55 | 51.46963 | -0.44056 | 96 ft | 19 kts | 180° |
| 2026-05-07 16:55 | 51.46864 | -0.44055 | 96 ft | 1 kts | 180° |
| 2026-05-07 16:55 | 51.46857 | -0.44055 | 94 ft | 3 kts | 180° |
| 2026-05-07 16:55 | 51.46815 | -0.44055 | 96 ft | 9 kts | 180° |
| 2026-05-07 16:56 | 51.46736 | -0.44054 | 96 ft | 14 kts | 179° |
| 2026-05-07 16:56 | 51.46632 | -0.44052 | 96 ft | 8 kts | 179° |
| 2026-05-07 16:56 | 51.46580 | -0.44052 | 96 ft | 9 kts | 180° |
| 2026-05-07 16:57 | 51.46498 | -0.44053 | 95 ft | 14 kts | 183° |
| 2026-05-07 16:57 | 51.46397 | -0.44122 | 95 ft | 17 kts | 209° |
| 2026-05-07 16:57 | 51.46319 | -0.44192 | 96 ft | 13 kts | 207° |
| 2026-05-07 16:57 | 51.46239 | -0.44252 | 97 ft | 10 kts | 203° |
| 2026-05-07 16:58 | 51.46218 | -0.44267 | 95 ft | 8 kts | 203° |
| 2026-05-07 16:58 | 51.46133 | -0.44324 | 95 ft | 16 kts | 202° |
| 2026-05-07 16:58 | 51.46050 | -0.44387 | 95 ft | 8 kts | 221° |
| 2026-05-07 16:58 | 51.46046 | -0.44448 | 94 ft | 5 kts | 276° |
| 2026-05-07 16:59 | 51.46054 | -0.44487 | 94 ft | 2 kts | 292° |
| 2026-05-07 16:59 | 51.46058 | -0.44503 | 96 ft | 0 kts | 292° |